sensor_id;sensor_type;location;lat;lon;timestamp;temperature;humidity
50586;DHT22;36542;51.700;8.846;2023-04-01T00:00:48;9.10;99.90
50586;DHT22;36542;51.700;8.846;2023-04-01T00:03:15;9.00;99.90
50586;DHT22;36542;51.700;8.846;2023-04-01T00:05:41;9.10;99.90
50586;DHT22;36542;51.700;8.846;2023-04-01T00:08:06;9.10;99.90
50586;DHT22;36542;51.700;8.846;2023-04-01T00:10:31;9.10;99.90
50586;DHT22;36542;51.700;8.846;2023-04-01T00:12:57;9.10;99.90
50586;DHT22;36542;51.700;8.846;2023-04-01T00:15:22;9.10;99.90
50586;DHT22;36542;51.700;8.846;2023-04-01T00:17:48;9.10;99.90
50586;DHT22;36542;51.700;8.846;2023-04-01T00:20:14;9.10;99.90
50586;DHT22;36542;51.700;8.846;2023-04-01T00:22:40;9.00;99.90
50586;DHT22;36542;51.700;8.846;2023-04-01T00:25:06;9.00;99.90
50586;DHT22;36542;51.700;8.846;2023-04-01T00:27:32;9.00;99.90
50586;DHT22;36542;51.700;8.846;2023-04-01T00:29:57;9.00;99.90
50586;DHT22;36542;51.700;8.846;2023-04-01T00:32:23;9.10;99.90
50586;DHT22;36542;51.700;8.846;2023-04-01T00:34:52;9.10;99.90
50586;DHT22;36542;51.700;8.846;2023-04-01T00:37:19;9.10;99.90
50586;DHT22;36542;51.700;8.846;2023-04-01T00:39:45;9.10;99.90
50586;DHT22;36542;51.700;8.846;2023-04-01T00:42:11;9.10;99.90
50586;DHT22;36542;51.700;8.846;2023-04-01T00:44:38;9.00;99.90
50586;DHT22;36542;51.700;8.846;2023-04-01T00:47:03;9.10;99.90
50586;DHT22;36542;51.700;8.846;2023-04-01T00:49:45;9.00;99.90
50586;DHT22;36542;51.700;8.846;2023-04-01T00:52:14;9.00;99.90
50586;DHT22;36542;51.700;8.846;2023-04-01T00:54:43;9.00;99.90
50586;DHT22;36542;51.700;8.846;2023-04-01T00:57:13;9.00;99.90
50586;DHT22;36542;51.700;8.846;2023-04-01T00:59:46;9.00;99.90
50586;DHT22;36542;51.700;8.846;2023-04-01T01:02:15;9.10;99.90
50586;DHT22;36542;51.700;8.846;2023-04-01T01:04:41;9.10;99.90
50586;DHT22;36542;51.700;8.846;2023-04-01T01:12:59;9.10;99.90
50586;DHT22;36542;51.700;8.846;2023-04-01T01:15:35;9.10;99.90
50586;DHT22;36542;51.700;8.846;2023-04-01T01:23:46;9.10;99.90
50586;DHT22;36542;51.700;8.846;2023-04-01T01:32:01;9.10;99.90
50586;DHT22;36542;51.700;8.846;2023-04-01T01:37:27;9.10;99.90
50586;DHT22;36542;51.700;8.846;2023-04-01T01:39:58;9.10;99.90
50586;DHT22;36542;51.700;8.846;2023-04-01T01:42:27;9.10;99.90
50586;DHT22;36542;51.700;8.846;2023-04-01T01:44:56;9.00;99.90
50586;DHT22;36542;51.700;8.846;2023-04-01T01:47:23;8.80;99.90
50586;DHT22;36542;51.700;8.846;2023-04-01T01:49:49;8.80;99.90
50586;DHT22;36542;51.700;8.846;2023-04-01T01:52:17;8.80;99.90
50586;DHT22;36542;51.700;8.846;2023-04-01T01:54:53;8.80;99.90
50586;DHT22;36542;51.700;8.846;2023-04-01T01:57:28;8.80;99.90
50586;DHT22;36542;51.700;8.846;2023-04-01T02:00:07;8.70;99.90
50586;DHT22;36542;51.700;8.846;2023-04-01T02:02:39;8.80;99.90
50586;DHT22;36542;51.700;8.846;2023-04-01T02:05:06;8.80;99.90
50586;DHT22;36542;51.700;8.846;2023-04-01T02:07:35;8.80;99.90
50586;DHT22;36542;51.700;8.846;2023-04-01T02:10:03;8.70;99.90
50586;DHT22;36542;51.700;8.846;2023-04-01T02:12:29;8.60;99.90
50586;DHT22;36542;51.700;8.846;2023-04-01T02:15:01;8.60;99.90
50586;DHT22;36542;51.700;8.846;2023-04-01T02:17:32;8.60;99.90
50586;DHT22;36542;51.700;8.846;2023-04-01T02:20:06;8.60;99.90
50586;DHT22;36542;51.700;8.846;2023-04-01T02:22:43;8.60;99.90
50586;DHT22;36542;51.700;8.846;2023-04-01T02:25:14;8.60;99.90
50586;DHT22;36542;51.700;8.846;2023-04-01T02:27:42;8.60;99.90
50586;DHT22;36542;51.700;8.846;2023-04-01T02:30:09;8.60;99.90
50586;DHT22;36542;51.700;8.846;2023-04-01T02:32:37;8.60;99.90
50586;DHT22;36542;51.700;8.846;2023-04-01T02:35:11;8.60;99.90
50586;DHT22;36542;51.700;8.846;2023-04-01T02:37:38;8.60;99.90
50586;DHT22;36542;51.700;8.846;2023-04-01T02:40:08;8.50;99.90
50586;DHT22;36542;51.700;8.846;2023-04-01T02:42:35;8.50;99.90
50586;DHT22;36542;51.700;8.846;2023-04-01T02:45:00;8.50;99.90
50586;DHT22;36542;51.700;8.846;2023-04-01T02:47:26;8.50;99.90
50586;DHT22;36542;51.700;8.846;2023-04-01T02:49:51;8.60;99.90
50586;DHT22;36542;51.700;8.846;2023-04-01T02:52:23;8.60;99.90
50586;DHT22;36542;51.700;8.846;2023-04-01T02:54:49;8.60;99.90
50586;DHT22;36542;51.700;8.846;2023-04-01T02:57:14;8.60;99.90
50586;DHT22;36542;51.700;8.846;2023-04-01T02:59:40;8.60;99.90
50586;DHT22;36542;51.700;8.846;2023-04-01T03:02:06;8.70;99.90
50586;DHT22;36542;51.700;8.846;2023-04-01T03:04:32;8.60;99.90
50586;DHT22;36542;51.700;8.846;2023-04-01T03:06:57;8.60;99.90
50586;DHT22;36542;51.700;8.846;2023-04-01T03:09:23;8.60;99.90
50586;DHT22;36542;51.700;8.846;2023-04-01T03:11:48;8.60;99.90
50586;DHT22;36542;51.700;8.846;2023-04-01T03:14:14;8.60;99.90
50586;DHT22;36542;51.700;8.846;2023-04-01T03:16:40;8.60;99.90
50586;DHT22;36542;51.700;8.846;2023-04-01T03:19:05;8.70;99.90
50586;DHT22;36542;51.700;8.846;2023-04-01T03:21:31;8.70;99.90
50586;DHT22;36542;51.700;8.846;2023-04-01T03:23:56;8.70;99.90
50586;DHT22;36542;51.700;8.846;2023-04-01T03:26:22;8.70;99.90
50586;DHT22;36542;51.700;8.846;2023-04-01T03:28:48;8.70;99.90
50586;DHT22;36542;51.700;8.846;2023-04-01T03:31:13;8.70;99.90
50586;DHT22;36542;51.700;8.846;2023-04-01T03:33:39;8.70;99.90
50586;DHT22;36542;51.700;8.846;2023-04-01T03:36:05;8.70;99.90
50586;DHT22;36542;51.700;8.846;2023-04-01T03:38:33;8.70;99.90
50586;DHT22;36542;51.700;8.846;2023-04-01T03:40:58;8.70;99.90
50586;DHT22;36542;51.700;8.846;2023-04-01T03:43:24;8.70;99.90
50586;DHT22;36542;51.700;8.846;2023-04-01T03:45:51;8.70;99.90
50586;DHT22;36542;51.700;8.846;2023-04-01T03:48:18;8.60;99.90
50586;DHT22;36542;51.700;8.846;2023-04-01T03:50:46;8.60;99.90
50586;DHT22;36542;51.700;8.846;2023-04-01T03:53:11;8.60;99.90
50586;DHT22;36542;51.700;8.846;2023-04-01T03:55:37;8.50;99.90
50586;DHT22;36542;51.700;8.846;2023-04-01T03:58:04;8.50;99.90
50586;DHT22;36542;51.700;8.846;2023-04-01T04:00:30;8.60;99.90
50586;DHT22;36542;51.700;8.846;2023-04-01T04:02:56;8.50;99.90
50586;DHT22;36542;51.700;8.846;2023-04-01T04:05:23;8.50;99.90
50586;DHT22;36542;51.700;8.846;2023-04-01T04:07:50;8.50;99.90
50586;DHT22;36542;51.700;8.846;2023-04-01T04:10:16;8.50;99.90
50586;DHT22;36542;51.700;8.846;2023-04-01T04:12:42;8.40;99.90
50586;DHT22;36542;51.700;8.846;2023-04-01T04:15:08;8.40;99.90
50586;DHT22;36542;51.700;8.846;2023-04-01T04:17:34;8.30;99.90
50586;DHT22;36542;51.700;8.846;2023-04-01T04:19:59;8.40;99.90
50586;DHT22;36542;51.700;8.846;2023-04-01T04:22:25;8.30;99.90
50586;DHT22;36542;51.700;8.846;2023-04-01T04:24:50;8.30;99.90
50586;DHT22;36542;51.700;8.846;2023-04-01T04:27:16;8.30;99.90
50586;DHT22;36542;51.700;8.846;2023-04-01T04:29:42;8.30;99.90
50586;DHT22;36542;51.700;8.846;2023-04-01T04:32:08;8.30;99.90
50586;DHT22;36542;51.700;8.846;2023-04-01T04:34:33;8.30;99.90
50586;DHT22;36542;51.700;8.846;2023-04-01T04:36:59;8.30;99.90
50586;DHT22;36542;51.700;8.846;2023-04-01T04:39:24;8.30;99.90
50586;DHT22;36542;51.700;8.846;2023-04-01T04:41:50;8.30;99.90
50586;DHT22;36542;51.700;8.846;2023-04-01T04:44:15;8.20;99.90
50586;DHT22;36542;51.700;8.846;2023-04-01T04:46:41;8.20;99.90
50586;DHT22;36542;51.700;8.846;2023-04-01T04:49:07;8.20;99.90
50586;DHT22;36542;51.700;8.846;2023-04-01T04:51:32;8.20;99.90
50586;DHT22;36542;51.700;8.846;2023-04-01T04:54:02;8.10;99.90
50586;DHT22;36542;51.700;8.846;2023-04-01T04:56:28;8.10;99.90
50586;DHT22;36542;51.700;8.846;2023-04-01T04:58:53;8.10;99.90
50586;DHT22;36542;51.700;8.846;2023-04-01T05:01:19;8.10;99.90
50586;DHT22;36542;51.700;8.846;2023-04-01T05:03:45;8.10;99.90
50586;DHT22;36542;51.700;8.846;2023-04-01T05:06:13;8.00;99.90
50586;DHT22;36542;51.700;8.846;2023-04-01T05:08:40;8.00;99.90
50586;DHT22;36542;51.700;8.846;2023-04-01T05:11:09;8.10;99.90
50586;DHT22;36542;51.700;8.846;2023-04-01T05:13:37;8.10;99.90
50586;DHT22;36542;51.700;8.846;2023-04-01T05:16:03;8.10;99.90
50586;DHT22;36542;51.700;8.846;2023-04-01T05:18:29;8.10;99.90
50586;DHT22;36542;51.700;8.846;2023-04-01T05:20:54;8.10;99.90
50586;DHT22;36542;51.700;8.846;2023-04-01T05:23:21;8.10;99.90
50586;DHT22;36542;51.700;8.846;2023-04-01T05:25:50;8.10;99.90
50586;DHT22;36542;51.700;8.846;2023-04-01T05:28:18;8.00;99.90
50586;DHT22;36542;51.700;8.846;2023-04-01T05:30:44;8.10;99.90
50586;DHT22;36542;51.700;8.846;2023-04-01T05:33:11;8.00;99.90
50586;DHT22;36542;51.700;8.846;2023-04-01T05:35:36;8.00;99.90
50586;DHT22;36542;51.700;8.846;2023-04-01T05:38:02;8.00;99.90
50586;DHT22;36542;51.700;8.846;2023-04-01T05:40:29;8.00;99.90
50586;DHT22;36542;51.700;8.846;2023-04-01T05:42:54;8.00;99.90
50586;DHT22;36542;51.700;8.846;2023-04-01T05:45:20;8.00;99.90
50586;DHT22;36542;51.700;8.846;2023-04-01T05:47:46;8.00;99.90
50586;DHT22;36542;51.700;8.846;2023-04-01T05:50:11;8.00;99.90
50586;DHT22;36542;51.700;8.846;2023-04-01T05:52:38;8.00;99.90
50586;DHT22;36542;51.700;8.846;2023-04-01T05:55:04;8.00;99.90
50586;DHT22;36542;51.700;8.846;2023-04-01T05:57:30;8.10;99.90
50586;DHT22;36542;51.700;8.846;2023-04-01T05:59:55;8.20;99.90
50586;DHT22;36542;51.700;8.846;2023-04-01T06:02:21;8.20;99.90
50586;DHT22;36542;51.700;8.846;2023-04-01T06:04:47;8.20;99.90
50586;DHT22;36542;51.700;8.846;2023-04-01T06:07:17;8.30;99.90
50586;DHT22;36542;51.700;8.846;2023-04-01T06:09:44;8.20;99.90
50586;DHT22;36542;51.700;8.846;2023-04-01T06:12:29;8.20;99.90
50586;DHT22;36542;51.700;8.846;2023-04-01T06:15:10;8.20;99.90
50586;DHT22;36542;51.700;8.846;2023-04-01T06:26:03;8.10;99.90
50586;DHT22;36542;51.700;8.846;2023-04-01T06:28:53;8.20;99.90
50586;DHT22;36542;51.700;8.846;2023-04-01T06:34:14;8.20;99.90
50586;DHT22;36542;51.700;8.846;2023-04-01T06:45:32;8.30;99.90
50586;DHT22;36542;51.700;8.846;2023-04-01T06:54:03;8.40;99.90
50586;DHT22;36542;51.700;8.846;2023-04-01T06:56:32;8.40;99.90
50586;DHT22;36542;51.700;8.846;2023-04-01T06:59:10;8.50;99.90
50586;DHT22;36542;51.700;8.846;2023-04-01T07:01:41;8.50;99.90
50586;DHT22;36542;51.700;8.846;2023-04-01T07:04:18;8.50;99.90
50586;DHT22;36542;51.700;8.846;2023-04-01T07:06:57;8.50;99.90
50586;DHT22;36542;51.700;8.846;2023-04-01T07:09:34;8.50;99.90
50586;DHT22;36542;51.700;8.846;2023-04-01T07:12:04;8.50;99.90
50586;DHT22;36542;51.700;8.846;2023-04-01T07:14:39;8.60;99.90
50586;DHT22;36542;51.700;8.846;2023-04-01T07:17:11;8.60;99.90
50586;DHT22;36542;51.700;8.846;2023-04-01T07:20:10;8.60;99.90
50586;DHT22;36542;51.700;8.846;2023-04-01T07:22:50;8.70;99.90
50586;DHT22;36542;51.700;8.846;2023-04-01T07:25:19;8.70;99.90
50586;DHT22;36542;51.700;8.846;2023-04-01T07:27:46;8.80;99.90
50586;DHT22;36542;51.700;8.846;2023-04-01T07:30:18;8.80;99.90
50586;DHT22;36542;51.700;8.846;2023-04-01T07:38:25;8.80;99.90
50586;DHT22;36542;51.700;8.846;2023-04-01T07:41:14;8.80;99.90
50586;DHT22;36542;51.700;8.846;2023-04-01T07:51:54;9.00;99.90
50586;DHT22;36542;51.700;8.846;2023-04-01T08:00:21;9.10;99.90
50586;DHT22;36542;51.700;8.846;2023-04-01T08:03:15;9.20;99.90
50586;DHT22;36542;51.700;8.846;2023-04-01T08:08:23;9.20;99.90
50586;DHT22;36542;51.700;8.846;2023-04-01T08:11:08;9.20;99.90
50586;DHT22;36542;51.700;8.846;2023-04-01T08:16:32;9.30;99.90
50586;DHT22;36542;51.700;8.846;2023-04-01T08:19:15;9.30;99.90
50586;DHT22;36542;51.700;8.846;2023-04-01T08:21:51;9.30;99.90
50586;DHT22;36542;51.700;8.846;2023-04-01T08:24:29;9.30;99.90
50586;DHT22;36542;51.700;8.846;2023-04-01T08:27:00;9.30;99.90
50586;DHT22;36542;51.700;8.846;2023-04-01T08:29:40;9.40;99.90
50586;DHT22;36542;51.700;8.846;2023-04-01T08:32:13;9.40;99.90
50586;DHT22;36542;51.700;8.846;2023-04-01T08:34:44;9.50;99.90
50586;DHT22;36542;51.700;8.846;2023-04-01T08:37:11;9.50;99.90
50586;DHT22;36542;51.700;8.846;2023-04-01T08:39:44;9.50;99.90
50586;DHT22;36542;51.700;8.846;2023-04-01T08:56:23;9.60;99.90
50586;DHT22;36542;51.700;8.846;2023-04-01T09:02:04;9.70;99.90
50586;DHT22;36542;51.700;8.846;2023-04-01T09:21:56;10.20;99.90
50586;DHT22;36542;51.700;8.846;2023-04-01T09:24:46;10.50;99.90
50586;DHT22;36542;51.700;8.846;2023-04-01T09:27:19;10.70;99.90
50586;DHT22;36542;51.700;8.846;2023-04-01T09:33:49;11.20;99.90
50586;DHT22;36542;51.700;8.846;2023-04-01T09:36:13;11.40;99.90
50586;DHT22;36542;51.700;8.846;2023-04-01T09:41:30;11.20;99.90
50586;DHT22;36542;51.700;8.846;2023-04-01T09:44:15;11.20;99.90
50586;DHT22;36542;51.700;8.846;2023-04-01T09:55:18;10.50;99.90
50586;DHT22;36542;51.700;8.846;2023-04-01T10:06:56;10.60;99.90
50586;DHT22;36542;51.700;8.846;2023-04-01T10:15:29;10.80;99.90
50586;DHT22;36542;51.700;8.846;2023-04-01T10:18:26;10.70;99.90
50586;DHT22;36542;51.700;8.846;2023-04-01T10:21:16;10.90;99.90
50586;DHT22;36542;51.700;8.846;2023-04-01T10:27:10;10.90;99.90
50586;DHT22;36542;51.700;8.846;2023-04-01T10:33:08;11.10;99.90
50586;DHT22;36542;51.700;8.846;2023-04-01T10:51:14;11.00;99.90
50586;DHT22;36542;51.700;8.846;2023-04-01T10:56:56;11.60;99.90
50586;DHT22;36542;51.700;8.846;2023-04-01T11:02:39;11.90;99.90
50586;DHT22;36542;51.700;8.846;2023-04-01T11:05:35;12.00;99.90
50586;DHT22;36542;51.700;8.846;2023-04-01T11:11:47;12.00;99.90
50586;DHT22;36542;51.700;8.846;2023-04-01T11:34:20;11.30;99.90
50586;DHT22;36542;51.700;8.846;2023-04-01T11:40:20;11.20;99.90
50586;DHT22;36542;51.700;8.846;2023-04-01T11:46:07;11.30;99.90
50586;DHT22;36542;51.700;8.846;2023-04-01T11:48:54;11.20;99.90
50586;DHT22;36542;51.700;8.846;2023-04-01T11:51:36;11.20;99.90
50586;DHT22;36542;51.700;8.846;2023-04-01T11:54:28;11.20;99.90
50586;DHT22;36542;51.700;8.846;2023-04-01T11:59:54;10.80;99.90
50586;DHT22;36542;51.700;8.846;2023-04-01T12:05:38;10.60;99.90
50586;DHT22;36542;51.700;8.846;2023-04-01T12:08:21;10.70;99.90
50586;DHT22;36542;51.700;8.846;2023-04-01T12:13:57;10.80;99.90
50586;DHT22;36542;51.700;8.846;2023-04-01T12:24:49;11.00;99.90
50586;DHT22;36542;51.700;8.846;2023-04-01T12:27:31;11.10;99.90
50586;DHT22;36542;51.700;8.846;2023-04-01T12:33:10;11.10;99.90
50586;DHT22;36542;51.700;8.846;2023-04-01T12:36:00;11.40;99.90
50586;DHT22;36542;51.700;8.846;2023-04-01T12:38:49;11.20;99.90
50586;DHT22;36542;51.700;8.846;2023-04-01T12:41:46;11.00;99.90
50586;DHT22;36542;51.700;8.846;2023-04-01T12:50:09;11.20;99.90
50586;DHT22;36542;51.700;8.846;2023-04-01T12:52:58;11.10;99.90
50586;DHT22;36542;51.700;8.846;2023-04-01T12:55:41;11.20;99.90
50586;DHT22;36542;51.700;8.846;2023-04-01T13:12:25;10.60;99.90
50586;DHT22;36542;51.700;8.846;2023-04-01T13:18:08;10.60;99.90
50586;DHT22;36542;51.700;8.846;2023-04-01T13:23:49;10.90;99.90
50586;DHT22;36542;51.700;8.846;2023-04-01T13:26:50;11.20;99.90
50586;DHT22;36542;51.700;8.846;2023-04-01T13:29:31;11.30;99.90
50586;DHT22;36542;51.700;8.846;2023-04-01T13:32:18;11.60;99.90
50586;DHT22;36542;51.700;8.846;2023-04-01T13:37:58;12.00;99.90
50586;DHT22;36542;51.700;8.846;2023-04-01T13:43:42;12.10;99.90
50586;DHT22;36542;51.700;8.846;2023-04-01T13:52:13;11.90;99.90
50586;DHT22;36542;51.700;8.846;2023-04-01T14:00:19;11.70;99.90
50586;DHT22;36542;51.700;8.846;2023-04-01T14:05:51;11.60;99.90
50586;DHT22;36542;51.700;8.846;2023-04-01T14:11:30;11.40;99.90
50586;DHT22;36542;51.700;8.846;2023-04-01T14:14:20;11.40;99.90
50586;DHT22;36542;51.700;8.846;2023-04-01T14:25:51;11.70;99.90
50586;DHT22;36542;51.700;8.846;2023-04-01T14:36:41;11.80;99.90
50586;DHT22;36542;51.700;8.846;2023-04-01T14:42:12;11.90;99.90
50586;DHT22;36542;51.700;8.846;2023-04-01T14:47:43;11.60;99.90
50586;DHT22;36542;51.700;8.846;2023-04-01T14:50:18;11.60;99.90
50586;DHT22;36542;51.700;8.846;2023-04-01T14:53:13;11.60;99.90
50586;DHT22;36542;51.700;8.846;2023-04-01T14:58:08;11.50;99.90
50586;DHT22;36542;51.700;8.846;2023-04-01T15:06:48;11.40;99.90
50586;DHT22;36542;51.700;8.846;2023-04-01T15:12:37;11.20;99.90
50586;DHT22;36542;51.700;8.846;2023-04-01T15:18:03;10.90;99.90
50586;DHT22;36542;51.700;8.846;2023-04-01T15:23:28;10.60;99.90
50586;DHT22;36542;51.700;8.846;2023-04-01T15:26:31;10.50;99.90
50586;DHT22;36542;51.700;8.846;2023-04-01T15:31:53;10.40;99.90
50586;DHT22;36542;51.700;8.846;2023-04-01T15:35:01;10.50;99.90
50586;DHT22;36542;51.700;8.846;2023-04-01T15:37:40;10.40;99.90
50586;DHT22;36542;51.700;8.846;2023-04-01T15:40:22;10.40;99.90
50586;DHT22;36542;51.700;8.846;2023-04-01T15:43:07;10.40;99.90
50586;DHT22;36542;51.700;8.846;2023-04-01T15:45:47;10.40;99.90
50586;DHT22;36542;51.700;8.846;2023-04-01T15:48:30;10.40;99.90
50586;DHT22;36542;51.700;8.846;2023-04-01T15:53:37;10.40;99.90
50586;DHT22;36542;51.700;8.846;2023-04-01T15:56:16;10.50;99.90
50586;DHT22;36542;51.700;8.846;2023-04-01T15:58:54;10.60;99.90
50586;DHT22;36542;51.700;8.846;2023-04-01T16:07:26;10.70;99.90
50586;DHT22;36542;51.700;8.846;2023-04-01T16:10:24;10.70;99.90
50586;DHT22;36542;51.700;8.846;2023-04-01T16:13:20;10.60;99.90
50586;DHT22;36542;51.700;8.846;2023-04-01T16:16:06;10.40;99.90
50586;DHT22;36542;51.700;8.846;2023-04-01T16:18:51;10.40;99.90
50586;DHT22;36542;51.700;8.846;2023-04-01T16:27:00;10.20;99.90
50586;DHT22;36542;51.700;8.846;2023-04-01T16:29:48;10.10;99.90
50586;DHT22;36542;51.700;8.846;2023-04-01T16:37:59;9.90;99.90
50586;DHT22;36542;51.700;8.846;2023-04-01T16:40:51;9.90;99.90
50586;DHT22;36542;51.700;8.846;2023-04-01T16:43:38;9.90;99.90
50586;DHT22;36542;51.700;8.846;2023-04-01T16:46:35;9.80;99.90
50586;DHT22;36542;51.700;8.846;2023-04-01T16:54:30;9.70;99.90
50586;DHT22;36542;51.700;8.846;2023-04-01T16:59:54;9.70;99.90
50586;DHT22;36542;51.700;8.846;2023-04-01T17:02:28;9.70;99.90
50586;DHT22;36542;51.700;8.846;2023-04-01T17:10:25;9.70;99.90
50586;DHT22;36542;51.700;8.846;2023-04-01T17:13:29;9.70;99.90
50586;DHT22;36542;51.700;8.846;2023-04-01T17:19:27;9.80;99.90
50586;DHT22;36542;51.700;8.846;2023-04-01T17:30:35;9.80;99.90
50586;DHT22;36542;51.700;8.846;2023-04-01T17:36:04;9.80;99.90
50586;DHT22;36542;51.700;8.846;2023-04-01T17:41:32;9.80;99.90
50586;DHT22;36542;51.700;8.846;2023-04-01T17:49:49;9.70;99.90
50586;DHT22;36542;51.700;8.846;2023-04-01T17:52:33;9.60;99.90
50586;DHT22;36542;51.700;8.846;2023-04-01T17:57:55;9.60;99.90
50586;DHT22;36542;51.700;8.846;2023-04-01T18:03:24;9.60;99.90
50586;DHT22;36542;51.700;8.846;2023-04-01T18:06:17;9.60;99.90
50586;DHT22;36542;51.700;8.846;2023-04-01T18:09:12;9.60;99.90
50586;DHT22;36542;51.700;8.846;2023-04-01T18:11:57;9.70;99.90
50586;DHT22;36542;51.700;8.846;2023-04-01T18:22:43;9.60;99.90
50586;DHT22;36542;51.700;8.846;2023-04-01T18:25:25;9.60;99.90
50586;DHT22;36542;51.700;8.846;2023-04-01T18:28:17;9.50;99.90
50586;DHT22;36542;51.700;8.846;2023-04-01T18:30:43;9.70;99.90
50586;DHT22;36542;51.700;8.846;2023-04-01T18:33:32;9.60;99.90
50586;DHT22;36542;51.700;8.846;2023-04-01T18:36:19;9.50;99.90
50586;DHT22;36542;51.700;8.846;2023-04-01T18:38:54;9.60;99.90
50586;DHT22;36542;51.700;8.846;2023-04-01T18:47:29;9.40;99.90
50586;DHT22;36542;51.700;8.846;2023-04-01T18:50:14;9.30;99.90
50586;DHT22;36542;51.700;8.846;2023-04-01T18:52:44;9.30;99.90
50586;DHT22;36542;51.700;8.846;2023-04-01T18:55:31;9.30;99.90
50586;DHT22;36542;51.700;8.846;2023-04-01T18:58:06;9.30;99.90
50586;DHT22;36542;51.700;8.846;2023-04-01T19:00:39;9.30;99.90
50586;DHT22;36542;51.700;8.846;2023-04-01T19:03:16;9.20;99.90
50586;DHT22;36542;51.700;8.846;2023-04-01T19:05:47;9.20;99.90
50586;DHT22;36542;51.700;8.846;2023-04-01T19:08:25;9.20;99.90
50586;DHT22;36542;51.700;8.846;2023-04-01T19:11:07;9.20;99.90
50586;DHT22;36542;51.700;8.846;2023-04-01T19:13:57;9.20;99.90
50586;DHT22;36542;51.700;8.846;2023-04-01T19:16:46;9.20;99.90
50586;DHT22;36542;51.700;8.846;2023-04-01T19:19:37;9.10;99.90
50586;DHT22;36542;51.700;8.846;2023-04-01T19:22:44;9.10;99.90
50586;DHT22;36542;51.700;8.846;2023-04-01T19:25:29;9.00;99.90
50586;DHT22;36542;51.700;8.846;2023-04-01T19:30:58;9.10;99.90
50586;DHT22;36542;51.700;8.846;2023-04-01T19:36:30;8.80;99.90
50586;DHT22;36542;51.700;8.846;2023-04-01T19:45:22;8.60;99.90
50586;DHT22;36542;51.700;8.846;2023-04-01T19:47:57;8.40;99.90
50586;DHT22;36542;51.700;8.846;2023-04-01T19:50:39;8.40;99.90
50586;DHT22;36542;51.700;8.846;2023-04-01T20:00:59;8.10;99.90
50586;DHT22;36542;51.700;8.846;2023-04-01T20:03:30;8.10;99.90
50586;DHT22;36542;51.700;8.846;2023-04-01T20:11:59;7.90;99.90
50586;DHT22;36542;51.700;8.846;2023-04-01T20:17:15;7.80;99.90
50586;DHT22;36542;51.700;8.846;2023-04-01T20:20:02;7.80;99.90
50586;DHT22;36542;51.700;8.846;2023-04-01T20:22:36;7.70;99.90
50586;DHT22;36542;51.700;8.846;2023-04-01T20:25:16;7.60;99.90
50586;DHT22;36542;51.700;8.846;2023-04-01T20:27:50;7.60;99.90
50586;DHT22;36542;51.700;8.846;2023-04-01T20:39:00;7.40;99.90
50586;DHT22;36542;51.700;8.846;2023-04-01T20:44:13;7.30;99.90
50586;DHT22;36542;51.700;8.846;2023-04-01T20:47:13;7.30;99.90
50586;DHT22;36542;51.700;8.846;2023-04-01T20:52:56;7.20;99.90
50586;DHT22;36542;51.700;8.846;2023-04-01T20:55:53;7.10;99.90
50586;DHT22;36542;51.700;8.846;2023-04-01T20:58:46;7.10;99.90
50586;DHT22;36542;51.700;8.846;2023-04-01T21:01:29;7.10;99.90
50586;DHT22;36542;51.700;8.846;2023-04-01T21:07:08;7.00;99.90
50586;DHT22;36542;51.700;8.846;2023-04-01T21:09:45;7.00;99.90
50586;DHT22;36542;51.700;8.846;2023-04-01T21:15:33;6.90;99.90
50586;DHT22;36542;51.700;8.846;2023-04-01T21:26:52;6.70;99.90
50586;DHT22;36542;51.700;8.846;2023-04-01T21:32:46;6.70;99.90
50586;DHT22;36542;51.700;8.846;2023-04-01T21:38:42;6.60;99.90
50586;DHT22;36542;51.700;8.846;2023-04-01T21:41:27;6.60;99.90
50586;DHT22;36542;51.700;8.846;2023-04-01T21:44:27;6.50;99.90
50586;DHT22;36542;51.700;8.846;2023-04-01T21:47:19;6.50;99.90
50586;DHT22;36542;51.700;8.846;2023-04-01T21:55:24;6.40;99.90
50586;DHT22;36542;51.700;8.846;2023-04-01T22:03:34;6.40;99.90
50586;DHT22;36542;51.700;8.846;2023-04-01T22:06:22;6.30;99.90
50586;DHT22;36542;51.700;8.846;2023-04-01T22:09:18;6.30;99.90
50586;DHT22;36542;51.700;8.846;2023-04-01T22:11:50;6.30;99.90
50586;DHT22;36542;51.700;8.846;2023-04-01T22:14:49;6.20;99.90
50586;DHT22;36542;51.700;8.846;2023-04-01T22:17:30;6.20;99.90
50586;DHT22;36542;51.700;8.846;2023-04-01T22:28:21;6.10;99.90
50586;DHT22;36542;51.700;8.846;2023-04-01T22:31:03;6.10;99.90
50586;DHT22;36542;51.700;8.846;2023-04-01T22:33:53;6.10;99.90
50586;DHT22;36542;51.700;8.846;2023-04-01T22:36:31;6.10;99.90
50586;DHT22;36542;51.700;8.846;2023-04-01T22:42:10;6.00;99.90
50586;DHT22;36542;51.700;8.846;2023-04-01T22:44:53;6.00;99.90
50586;DHT22;36542;51.700;8.846;2023-04-01T22:50:24;5.90;99.90
50586;DHT22;36542;51.700;8.846;2023-04-01T22:52:59;6.00;99.90
50586;DHT22;36542;51.700;8.846;2023-04-01T22:55:33;5.90;99.90
50586;DHT22;36542;51.700;8.846;2023-04-01T22:58:12;5.90;99.90
50586;DHT22;36542;51.700;8.846;2023-04-01T23:00:43;5.90;99.90
50586;DHT22;36542;51.700;8.846;2023-04-01T23:03:21;5.90;99.90
50586;DHT22;36542;51.700;8.846;2023-04-01T23:05:50;5.90;99.90
50586;DHT22;36542;51.700;8.846;2023-04-01T23:11:23;5.80;99.90
50586;DHT22;36542;51.700;8.846;2023-04-01T23:14:23;5.70;99.90
50586;DHT22;36542;51.700;8.846;2023-04-01T23:22:25;5.50;99.90
50586;DHT22;36542;51.700;8.846;2023-04-01T23:27:52;5.40;99.90
50586;DHT22;36542;51.700;8.846;2023-04-01T23:35:58;5.30;99.90
50586;DHT22;36542;51.700;8.846;2023-04-01T23:38:39;5.30;99.90
50586;DHT22;36542;51.700;8.846;2023-04-01T23:41:21;5.20;99.90
50586;DHT22;36542;51.700;8.846;2023-04-01T23:43:59;5.20;99.90
50586;DHT22;36542;51.700;8.846;2023-04-01T23:46:26;5.20;99.90
50586;DHT22;36542;51.700;8.846;2023-04-01T23:48:52;5.10;99.90
50586;DHT22;36542;51.700;8.846;2023-04-01T23:53:45;5.10;99.90
50586;DHT22;36542;51.700;8.846;2023-04-01T23:56:11;5.10;99.90
50586;DHT22;36542;51.700;8.846;2023-04-01T23:58:45;5.00;99.90
